AirNav   Bose Proflight and A20 aviation headeets
 
 1086 users online  

CL35 Warner Springs Gliderport
Warner Springs, California, USA

GOING TO WARNER SPRINGS?


FAA INFORMATION EFFECTIVE 31 JANUARY 2019

Location

FAA Identifier: CL35
Lat/Long: 33-17-04.2100N / 116-40-10.7650W
33-17.070167N / 116-40.179417W
33.2845028 / -116.6696569
(estimated)
Elevation: 2880 ft. / 878 m (estimated)
Variation: 13E (1985)
From city: 2 miles E of WARNER SPRINGS, CA
Time zone: UTC -8 (UTC -7 during Daylight Saving Time)
Zip code: 92086

Gliderport Operations

Gliderport use: Private use. Permission required prior to landing
Activation date: 10/1984
Control tower: no
ARTCC: LOS ANGELES CENTER
FSS: SAN DIEGO FLIGHT SERVICE STATION
Attendance: 0900-1700
Wind indicator: yes
Segmented circle: yes
Landing fee: yes

Gliderport Communications

UNICOM: 122.8
WX AWOS-3P at L08 (18 nm E): 126.575 (760-767-3308)
WX ASOS at RNM (19 nm SW): 132.025 (760-789-0736)

Nearby radio navigation aids

VOR radial/distance  VOR name  Freq  Var
JLIr319/9.6JULIAN VORTAC114.0015E
TRMr218/32.8THERMAL VORTAC116.2013E
PSPr186/37.1PALM SPRINGS VORTAC115.5013E
OCNr071/37.6OCEANSIDE VORTAC115.3015E
HDFr125/(39.2)HOMELAND VOR113.4014E

Gliderport Services

Runway Information

Runway 8/26

Dimensions: 3500 x 70 ft. / 1067 x 21 m
Surface: asphalt
RUNWAY 8  RUNWAY 26
Latitude: 33-17.060333N33-17.080000N
Longitude: 116-40.522667W116-39.836167W
Elevation: 2873.0 ft.2914.0 ft.
Traffic pattern: leftleft
Obstructions: none200 ft. hill, 5200 ft. from runway

Gliderport Ownership and Management from official FAA records

Ownership: Privately-owned
Owner: WARNER SPRINGS RANCH RESORT, LLC
31930 HWY 79
WARNER SPRINGS, CA 92086
Phone 760-782-4200
SKY SAILING 31930 HWY 79.
Manager: BRET WILLAT
SKY SAILING 31930 HWY 79
WARNER SPRINGS, CA 92086
Phone 760-782-0404
LEASEE.

Gliderport Operational Statistics

Aircraft based on the field: 80
Single engine airplanes: 10
Gliders airplanes: 70
    

Instrument Procedures

There are no published instrument procedures at CL35.

Some nearby airports with instrument procedures:

L08 - Borrego Valley Airport (18 nm E)
KRNM - Ramona Airport (19 nm SW)
F70 - French Valley Airport (29 nm NW)
L18 - Fallbrook Community Airpark (29 nm W)
KSEE - Gillespie Field Airport (31 nm SW)
 
Loc | Ops | Rwys | IFR | FBO | Links
Com | Nav | Svcs | Stats | Notes
Area around CL35 (Warner Springs Gliderport)
 
Road maps at: MapQuest Bing Google
 
Aerial photo
WARNING: Photo may not be current or correct
Aerial photo of CL35 (Warner Springs Gliderport)
Photo by Steve Lupinacci
Photo taken 27-May-2008

Do you have a better or more recent aerial photo of Warner Springs Gliderport that you would like to share? If so, please send us your photo.

 
Sectional chart

 
Airport distance calculator
Flying to Warner Springs Gliderport? Find the distance to fly.

From to CL35

Sunrise and sunset
Times for 23-Feb-2019
 Local
(UTC-8)
 Zulu
(UTC)
Morning civil twilight05:5813:58
Sunrise06:2314:23
Sunset17:3701:37
Evening civil twilight18:0202:02

Current date and time
Zulu (UTC)  23-Feb-2019 16:20:02
Local (UTC-8)  23-Feb-2019 08:20:02
 
METAR
KL08 
18nm E 
231555Z AUTO 23003KT 10SM CLR 04/M00 A3031 RMK AO2
KRNM 
20nm SW 
231553Z AUTO 00000KT 10SM CLR 02/M01 A3029 RMK AO2 SLP260 T00221006
KF70 
29nm NW 
231555Z AUTO 01004KT 10SM CLR 03/00 A3030 RMK AO1
KL18 
29nm W 
231555Z AUTO 02003KT 10SM CLR 06/M01 A3030 RMK AO2
KSEE 
32nm SW 
231547Z 00000KT 10SM SKC 03/01 A3031
KCRQ 
32nm W 
231553Z AUTO 07005KT 10SM CLR 09/00 A3029 RMK AO2 SLP258 T00940000
KTRM 
33nm NE 
231552Z AUTO 34006KT 10SM CLR 09/M02 A3031 RMK AO2 SLP262 T00891022
KPSP 
33nm N 
231553Z 00000KT 10SM CLR 08/M02 A3032 RMK AO2 SLP270 T00781022
KNFG 
33nm W 
231455Z AUTO 00000KT 10SM CLR 00/00 A3030 RMK AO2 SLP262 T00000000 53010 $
KNKX 
34nm SW 
222155Z 24007KT 10SM FEW040 15/02 3002 RMK A02 SLP163 T01500017 $
TAF
KCRQ 
32nm W 
231120Z 2312/2412 VRB05KT P6SM SKC FM232100 25008KT P6SM SKC FM240100 VRB04KT P6SM SKC
KTRM 
33nm NE 
231120Z 2312/2412 VRB05KT P6SM SKC
KPSP 
33nm N 
231120Z 2312/2412 VRB05KT P6SM SKC
KNFG 
33nm W 
2303/2403 VRB05KT 9999 SKC QNH3010INS BECMG 2318/2320 22007KT 9999 SKC QNH3026INS T00/2312Z T14/2323Z
KNKX 
34nm SW 
2303/2403 VRB05KT 9999 SKC QNH3010INS T05/2313Z T17/2321Z
NOTAMs
Click for the latest NOTAMs
NOTAMs are issued by the DoD/FAA and will open in a separate window not controlled by AirNav.

 

 
 

Would you like to see your business listed on this page?

 If your business provides an interesting product or service to pilots, flight crews, aircraft, or users of the Warner Springs Gliderport, you should consider listing it here.  To start the listing process, click on the button below
 
Add a business
 

Other Pages about Warner Springs Gliderport

www.agcsc.org/warner_springs_info.html
 
Update a link
 
Copyright © AirNav, LLC. All rights reserved. Privacy Policy  Contact